Latest Coastal Weather Observations for Adele Island

IDW60701

Issued at 12:05 pm WST Friday 31 October 2014 (issued every 10 minutes, with the page automatically refreshed every 10 minutes)

About coastal observations | Map of coastal stations | Coastal observations for WA | Marine services | Other Formats
Station Details ID: 200735 Name: ADELE ISLAND Lat: -15.51 Lon: 123.16 Height: 4.6 m
Data from the previous 72 hours. | See also: Recent months for locations in Western Australia
Date/Time
WST
Temp

°C
Wind Pressure Rain
since 9am
mm
Weather Cloud Vis
km
Sea
Height
m
Swell
Dir
 
Speed
knots
Gust
knots
hPa Trend Height
m
Period
s
Dir
31/12:00pm 28.8 NW 8 11 1008.7 - - - - - - - - -
31/11:30am 29.2 NNW 9 12 1009.2 - - - - - - - - -
31/11:00am 28.5 N 10 13 1009.5 - - - - - - - - -
31/10:30am 29.3 NW 7 9 1010.0 - - - - - - - - -
31/10:00am 28.9 W 8 11 1010.2 - - - - - - - - -
31/09:30am 28.7 WSW 8 10 1010.3 - - - - - - - - -
31/09:00am 28.6 WSW 8 10 1010.6 - - - - - - - - -
31/08:30am 28.8 WSW 8 9 1010.8 - - - - - - - - -
31/08:00am 28.5 WNW 6 8 1010.7 - - - - - - - - -
31/07:30am 28.1 W 6 7 1010.4 - - - - - - - - -
31/07:00am 27.6 NNW 6 7 1010.0 - - - - - - - - -
31/06:30am 27.3 WSW 6 8 1009.5 - - - - - - - - -
31/06:00am 27.3 WSW 7 9 1009.1 - - - - - - - - -
31/05:30am 27.2 WSW 8 9 1008.8 - - - - - - - - -
31/05:00am 27.3 WSW 10 11 1008.5 - - - - - - - - -
31/04:30am 27.3 WSW 10 12 1008.3 - - - - - - - - -
31/04:00am 27.3 WSW 11 13 1007.9 - - - - - - - - -
31/03:30am 27.4 W 10 13 1007.7 - - - - - - - - -
31/03:00am 27.3 W 11 14 1007.5 - - - - - - - - -
31/02:30am 27.4 WSW 12 14 1007.3 - - - - - - - - -
31/02:00am 27.5 WNW 12 15 1007.4 - - - - - - - - -
31/01:30am 27.4 WNW 12 15 1007.6 - - - - - - - - -
31/01:00am 27.4 WNW 13 15 1007.5 - - - - - - - - -
31/12:30am 27.4 WNW 13 16 1007.8 - - - - - - - - -
31/12:00am 27.4 NW 12 15 1008.1 - - - - - - - - -
 
Date/Time
WST
Temp

°C
Wind Pressure Rain
since 9am
mm
Weather Cloud Vis
km
Sea
Height
m
Swell
Dir
 
Speed
knots
Gust
knots
hPa Trend Height
m
Period
s
Dir
30/11:30pm 27.5 WNW 12 15 1008.6 - - - - - - - - -
30/11:00pm 27.5 WNW 11 15 1008.8 - - - - - - - - -
30/10:30pm 27.6 WNW 12 15 1009.1 - - - - - - - - -
30/10:00pm 27.7 WNW 11 14 1009.3 - - - - - - - - -
30/09:30pm 27.7 WNW 11 14 1009.5 - - - - - - - - -
30/09:00pm 27.7 WNW 12 16 1009.2 - - - - - - - - -
30/08:30pm 27.7 W 13 16 1009.1 - - - - - - - - -
30/08:00pm 27.8 W 12 15 1008.8 - - - - - - - - -
30/07:30pm 27.9 W 13 16 1008.4 - - - - - - - - -
30/07:00pm 27.9 W 14 17 1008.0 - - - - - - - - -
30/06:30pm 28.1 W 13 15 1007.8 - - - - - - - - -
30/06:00pm 28.0 W 13 16 1007.6 - - - - - - - - -
30/05:30pm 28.1 WNW 14 17 1007.3 - - - - - - - - -
30/05:00pm 28.5 WNW 13 16 1007.2 - - - - - - - - -
30/04:30pm 28.6 WNW 13 17 1007.0 - - - - - - - - -
30/04:00pm 28.9 NW 13 16 1007.2 - - - - - - - - -
30/03:30pm 28.8 WNW 13 16 1007.3 - - - - - - - - -
30/03:00pm 28.9 WNW 13 16 1007.4 - - - - - - - - -
30/02:30pm 29.1 WNW 13 15 1007.8 - - - - - - - - -
30/02:00pm 29.4 WNW 12 15 1008.1 - - - - - - - - -
30/01:30pm 28.9 WNW 11 13 1008.3 - - - - - - - - -
30/01:00pm 29.3 WNW 11 12 1008.6 - - - - - - - - -
30/12:30pm 28.6 W 9 11 1009.1 - - - - - - - - -
30/12:00pm 29.0 WSW 9 11 1009.5 - - - - - - - - -
30/11:30am 28.9 WSW 9 11 1009.8 - - - - - - - - -
30/11:00am 29.0 WSW 8 11 1010.2 - - - - - - - - -
30/10:30am 29.0 WSW 7 9 1010.5 - - - - - - - - -
30/10:00am 29.4 SSW 8 10 1010.7 - - - - - - - - -
30/09:30am 29.2 SSW 7 10 1011.0 - - - - - - - - -
30/09:00am 29.0 SW 5 7 1011.1 - - - - - - - - -
30/08:30am 28.9 WSW 5 6 1011.3 - - - - - - - - -
30/08:00am 28.1 SW 5 6 1011.2 - - - - - - - - -
30/07:30am 27.7 S 3 5 1011.1 - - - - - - - - -
30/07:00am 27.5 SSW 6 8 1010.8 - - - - - - - - -
30/06:30am 27.2 S 8 10 1010.4 - - - - - - - - -
30/06:00am 26.8 S 8 9 1010.0 - - - - - - - - -
30/05:30am 26.5 S 7 8 1009.7 - - - - - - - - -
30/05:00am 26.5 S 7 9 1009.3 - - - - - - - - -
30/04:30am 26.6 S 8 9 1009.1 - - - - - - - - -
30/04:00am 26.7 S 8 9 1009.1 - - - - - - - - -
30/03:30am 26.8 S 7 9 1008.9 - - - - - - - - -
30/03:00am 26.9 SSW 7 9 1008.8 - - - - - - - - -
30/02:30am 27.0 SSW 7 9 1008.9 - - - - - - - - -
30/02:00am 27.0 SSW 8 10 1008.9 - - - - - - - - -
30/01:30am 27.2 SW 8 10 1009.2 - - - - - - - - -
30/01:00am 27.1 WSW 6 7 1009.5 - - - - - - - - -
30/12:30am 27.3 W 6 8 1009.6 - - - - - - - - -
30/12:00am 27.1 W 8 10 1009.6 - - - - - - - - -
 
Date/Time
WST
Temp

°C
Wind Pressure Rain
since 9am
mm
Weather Cloud Vis
km
Sea
Height
m
Swell
Dir
 
Speed
knots
Gust
knots
hPa Trend Height
m
Period
s
Dir
29/11:30pm 27.1 W 9 10 1009.8 - - - - - - - - -
29/11:00pm 27.0 W 9 11 1010.3 - - - - - - - - -
29/10:30pm 27.1 WSW 10 13 1010.6 - - - - - - - - -
29/10:00pm 27.1 SW 11 14 1010.8 - - - - - - - - -
29/09:30pm 27.1 SW 11 13 1010.8 - - - - - - - - -
29/09:00pm 27.3 SW 12 15 1010.9 - - - - - - - - -
29/08:30pm 27.3 SW 13 16 1010.8 - - - - - - - - -
29/08:00pm 27.3 WSW 13 17 1010.8 - - - - - - - - -
29/07:30pm 27.4 WSW 14 19 1010.9 - - - - - - - - -
29/07:00pm 27.5 WSW 14 17 1010.8 - - - - - - - - -
29/06:30pm 27.4 WSW 14 17 1010.7 - - - - - - - - -
29/06:00pm 27.7 W 12 15 1010.5 - - - - - - - - -
29/05:30pm 27.8 W 13 15 1010.3 - - - - - - - - -
29/05:00pm 28.1 W 12 14 1010.0 - - - - - - - - -
29/04:30pm 28.3 W 12 14 1009.9 - - - - - - - - -
29/04:00pm 28.4 W 13 15 1010.0 - - - - - - - - -
29/03:30pm 28.9 W 12 15 1010.1 - - - - - - - - -
29/03:00pm 28.6 W 11 14 1010.4 - - - - - - - - -
29/02:30pm 29.2 W 9 12 1010.8 - - - - - - - - -
29/02:00pm 29.4 W 10 12 1010.9 - - - - - - - - -
29/01:30pm 28.8 W 9 11 1011.2 - - - - - - - - -
29/01:00pm 28.6 W 10 12 1011.4 - - - - - - - - -
29/12:30pm 29.5 WNW 9 11 1011.8 - - - - - - - - -
29/12:00pm 28.6 W 8 9 1012.2 - - - - - - - - -
29/11:30am 29.6 W 7 10 1012.5 - - - - - - - - -
29/11:00am 29.0 W 7 9 1012.5 - - - - - - - - -
29/10:30am 28.9 SW 7 11 1012.8 - - - - - - - - -
29/10:00am 29.0 WSW 7 10 1013.1 - - - - - - - - -
29/09:30am 28.0 SSW 9 12 1013.1 - - - - - - - - -
29/09:00am 28.2 SSW 9 12 1013.0 - - - - - - - - -
29/08:30am 27.7 SSW 8 11 1013.1 - - - - - - - - -
29/08:00am 27.6 SSW 8 11 1013.0 - - - - - - - - -
29/07:30am 27.7 S 6 8 1013.0 - - - - - - - - -
29/07:00am 27.2 SSW 7 8 1012.7 - - - - - - - - -
29/06:30am 26.9 SSW 7 8 1012.1 - - - - - - - - -
29/06:00am 26.6 WSW 6 7 1011.9 - - - - - - - - -
29/05:30am 26.5 W 6 6 1011.6 - - - - - - - - -
29/05:00am 26.5 N 4 5 1011.5 - - - - - - - - -
29/04:30am 26.6 WNW 5 6 1011.2 - - - - - - - - -
29/04:00am 26.6 W 5 6 1010.7 - - - - - - - - -
29/03:30am 26.4 S 7 8 1010.3 - - - - - - - - -
29/03:00am 26.6 SSW 6 7 1010.3 - - - - - - - - -
29/02:30am 26.8 SW 6 7 1010.3 - - - - - - - - -
29/02:00am 26.7 SW 6 7 1010.3 - - - - - - - - -
29/01:30am 26.7 SW 6 8 1010.3 - - - - - - - - -
29/01:00am 26.8 SSW 7 9 1010.6 - - - - - - - - -
29/12:30am 26.8 SW 7 9 1010.5 - - - - - - - - -
29/12:00am 26.9 SW 8 9 1010.6 - - - - - - - - -
 
Date/Time
WST
Temp

°C
Wind Pressure Rain
since 9am
mm
Weather Cloud Vis
km
Sea
Height
m
Swell
Dir
 
Speed
knots
Gust
knots
hPa Trend Height
m
Period
s
Dir
28/11:30pm 26.7 WSW 6 7 1011.0 - - - - - - - - -
28/11:00pm 26.9 SW 7 9 1011.0 - - - - - - - - -
28/10:30pm 26.8 WSW 7 9 1011.0 - - - - - - - - -
28/10:00pm 26.8 SW 9 10 1010.8 - - - - - - - - -
28/09:30pm 26.9 SW 10 12 1010.7 - - - - - - - - -
28/09:00pm 27.0 SW 12 14 1010.5 - - - - - - - - -
28/08:30pm 27.2 SW 11 14 1010.5 - - - - - - - - -
28/08:00pm 27.3 SSW 12 15 1010.5 - - - - - - - - -
28/07:30pm 27.2 SW 11 14 1010.5 - - - - - - - - -
28/07:00pm 27.4 SW 12 15 1010.2 - - - - - - - - -
28/06:30pm 27.6 WSW 12 14 1009.8 - - - - - - - - -
28/06:00pm 27.7 WSW 12 15 1009.7 - - - - - - - - -
28/05:30pm 27.8 WSW 11 14 1009.5 - - - - - - - - -
28/05:00pm 28.3 WSW 11 14 1009.5 - - - - - - - - -
28/04:30pm 28.6 W 11 14 1009.7 - - - - - - - - -
28/04:00pm 28.7 W 10 12 1009.6 - - - - - - - - -
28/03:30pm 29.2 W 9 11 1009.7 - - - - - - - - -
28/03:00pm 29.0 W 9 11 1010.0 - - - - - - - - -
28/02:30pm 29.1 W 9 11 1010.2 - - - - - - - - -
28/02:00pm 29.8 WNW 8 11 1010.3 - - - - - - - - -
28/01:30pm 29.3 W 8 10 1010.5 - - - - - - - - -
28/01:00pm 29.0 WNW 9 10 1010.6 - - - - - - - - -
28/12:30pm 29.1 NW 7 9 1011.4 - - - - - - - - -

Other Formats:

Comma delimited format used in spreadsheet applications
http://www.bom.gov.au/fwo/IDW60701/IDW60701.94210.axf

JavaScript Object Notation format (JSON) in row-major order
http://www.bom.gov.au/fwo/IDW60701/IDW60701.94210.json